หน้าหลัก
METAR-TAF:

METAR-TAF

ท่าอากาศยาน :

Wonderboom Airport

พริทอเรีย, แอฟริกาใต้

ละติจูด: 25-39S, ลองจิจูด: 028-13E, ความสูง: 1248 ม.

การสังเกตสภาพอากาศปัจจุบัน

รายงานได้ทำขึ้นเมื่อ 48 นาทีที่แล้ว ณ เวลา 18:00 UTC
ลม 2 นอตจากตะวันออกเฉียงใต้
อุณหภูมิ 14°C
ความชื้น 82%
ความกดอากาศ 1024 hPa

METAR: FAWB 151800Z AUTO 14002KT //// // ////// 14/11 Q1024

เวลา: 20:48 (18:48 UTC)

การพยากรณ์

รายงานได้ทำขึ้นเมื่อ 9 ชั่วโมงและ 48 นาทีที่แล้ว ณ เวลา 09:00 UTC
การพยากรณ์มีผลตั้งแต่วันที่ 15 ณ เวลา 10 UTC จนถึงวันที่ 15 ณ เวลา 18 UTC
ลม 3 นอตจากทิศทางซึ่งแปรผันได้
ทัศนวิสัย 10 กม. หรือมากกว่า
ไม่มีเมฆต่ำกว่า 1,500 ม. และไม่มีเมฆคิวมูโลนิมบัส
ความน่าจะเป็น 40% :
ชั่วคราว
ตั้งแต่วันที่ 15 ณ เวลา 10 UTC จนถึงวันที่ 15 ณ เวลา 16 UTC
มีเมฆน้อยที่ความสูง 3500 ฟุต, คิวมูโลนิมบัส.
พายุฝนฟ้าคะนอง, ฝนตกเล็กน้อย,

TAF: FAWB 150900Z 1510/1518 VRB03KT CAVOK TX23/1512Z TN18/1518Z PROB40 TEMPO 1510/1516 -TSRA FEW035CB

สังเกตการณ์สภาพอากาศและพยากรณ์อากาศของสนามบินมากกว่า 4000 แห่ง (รายงาน METAR และ TAF).

สถานีที่ดูได้จะแสดงไว้ด้วยจุดสีเหลืองและสีแดงบนแผนที่.

เลื่อนเมาส์ไปเหนือจุดเพื่อดูชื่อสถานี.

แล้วคลิกเพื่อดูสังเกตการณ์และการพยากรณ์สภาพอากาศ.

ในการเปลี่ยนแผนที่: คลิกที่ปุ่มสีเขียวที่มีกากบาทสีดำเพื่อซูมเข้า; ที่ปุ่มสีเขียวที่มีขีดเพื่อซูมออก; หรือที่ลูกศรสีเขียวเพื่อไปยังแผนที่ที่อยู่ติดกัน.


METAR-TAF: